createdAt,value
2022-09-28T00:00:33.693Z,23.9
2022-09-28T00:01:35.328Z,23.9
2022-09-28T00:02:40.224Z,23.9
2022-09-28T00:03:45.202Z,23.9
2022-09-28T00:04:46.976Z,23.9
2022-09-28T00:05:48.610Z,23.9
2022-09-28T00:06:50.488Z,23.9
2022-09-28T00:07:52.033Z,23.9
2022-09-28T00:08:53.777Z,23.9
2022-09-28T00:09:55.503Z,23.9
2022-09-28T00:10:57.190Z,23.9
2022-09-28T00:11:58.859Z,23.9
2022-09-28T00:13:00.482Z,23.9
2022-09-28T00:14:02.252Z,23.9
2022-09-28T00:15:03.997Z,23.9
2022-09-28T00:16:05.730Z,23.8
2022-09-28T00:17:07.759Z,23.8
2022-09-28T00:18:09.282Z,23.8
2022-09-28T00:19:10.906Z,23.8
2022-09-28T00:20:12.610Z,23.8
2022-09-28T00:21:14.286Z,23.8
2022-09-28T00:22:16.006Z,23.8
2022-09-28T00:23:17.613Z,23.8
2022-09-28T00:24:21.244Z,23.8
2022-09-28T00:25:29.456Z,23.8
2022-09-28T00:26:31.032Z,23.8
2022-09-28T00:27:32.723Z,23.8
2022-09-28T00:28:34.263Z,23.8
2022-09-28T00:29:35.911Z,23.8
2022-09-28T00:30:37.513Z,23.8
2022-09-28T00:31:39.387Z,23.8
2022-09-28T00:32:41.342Z,23.8
2022-09-28T00:33:43.015Z,23.8
2022-09-28T00:34:44.539Z,23.8
2022-09-28T00:35:46.179Z,23.8
2022-09-28T00:36:48.063Z,23.8
2022-09-28T00:37:49.773Z,23.8
2022-09-28T00:38:51.475Z,23.8
2022-09-28T00:39:53.271Z,23.8
2022-09-28T00:40:54.955Z,23.8
2022-09-28T00:41:57.313Z,23.8
2022-09-28T00:42:58.908Z,23.7
2022-09-28T00:44:00.571Z,23.7
2022-09-28T00:45:02.455Z,23.7
2022-09-28T00:46:04.160Z,23.7
2022-09-28T00:47:06.358Z,23.7
2022-09-28T00:48:07.990Z,23.7
2022-09-28T00:49:09.579Z,23.7
2022-09-28T00:50:11.595Z,23.7
2022-09-28T00:51:13.225Z,23.7
2022-09-28T00:52:15.042Z,23.7
2022-09-28T00:53:16.671Z,23.7
2022-09-28T00:54:18.209Z,23.7
2022-09-28T00:55:19.891Z,23.7
2022-09-28T00:56:21.557Z,23.7
2022-09-28T00:57:23.136Z,23.7
2022-09-28T00:58:24.950Z,23.7
2022-09-28T00:59:26.522Z,23.7
2022-09-28T01:00:28.062Z,23.7
2022-09-28T01:01:30.218Z,23.7
2022-09-28T01:02:32.030Z,23.7
2022-09-28T01:03:34.358Z,23.7
2022-09-28T01:04:35.982Z,23.7
2022-09-28T01:05:37.775Z,23.7
2022-09-28T01:06:39.370Z,23.7
2022-09-28T01:07:40.942Z,23.7
2022-09-28T01:08:42.556Z,23.7
2022-09-28T01:09:44.294Z,23.7
2022-09-28T01:10:46.002Z,23.7
2022-09-28T01:11:47.752Z,23.7
2022-09-28T01:12:49.393Z,23.7
2022-09-28T01:13:50.988Z,23.7
2022-09-28T01:14:52.599Z,23.7
2022-09-28T01:15:54.208Z,23.7
2022-09-28T01:16:56.386Z,23.7
2022-09-28T01:17:57.944Z,23.6
2022-09-28T01:18:59.654Z,23.6
2022-09-28T01:20:01.279Z,23.6
2022-09-28T01:21:03.205Z,23.6
2022-09-28T01:22:07.370Z,23.6
2022-09-28T01:23:09.145Z,23.6
2022-09-28T01:24:13.309Z,23.6
2022-09-28T01:25:14.851Z,23.6
2022-09-28T01:26:16.622Z,23.6
2022-09-28T01:27:18.282Z,23.6
2022-09-28T01:28:19.900Z,23.6
2022-09-28T01:29:21.505Z,23.6
2022-09-28T01:30:23.209Z,23.6
2022-09-28T01:31:24.821Z,23.6
2022-09-28T01:32:26.794Z,23.6
2022-09-28T01:33:28.393Z,23.6
2022-09-28T01:34:30.035Z,23.6
2022-09-28T01:35:31.629Z,23.6
2022-09-28T01:36:33.233Z,23.6
2022-09-28T01:37:34.777Z,23.6
2022-09-28T01:38:36.470Z,23.6
2022-09-28T01:39:38.076Z,23.6
2022-09-28T01:40:39.749Z,23.6
2022-09-28T01:41:42.014Z,23.6
2022-09-28T01:42:43.713Z,23.6
2022-09-28T01:43:45.411Z,23.6
2022-09-28T01:44:47.013Z,23.6
2022-09-28T01:45:48.583Z,23.6
2022-09-28T01:46:50.552Z,23.6
2022-09-28T01:47:52.132Z,23.6
2022-09-28T01:48:53.706Z,23.6
2022-09-28T01:49:55.339Z,23.6
2022-09-28T01:50:57.026Z,23.6
2022-09-28T01:51:58.710Z,23.6
2022-09-28T01:53:00.324Z,23.5
2022-09-28T01:54:01.908Z,23.5
2022-09-28T01:55:03.511Z,23.5
2022-09-28T01:56:05.097Z,23.5
2022-09-28T01:57:06.965Z,23.5
2022-09-28T01:58:08.672Z,23.5
2022-09-28T01:59:10.266Z,23.5
2022-09-28T02:00:12.144Z,23.5
2022-09-28T02:01:13.925Z,23.5
2022-09-28T02:02:16.112Z,23.5
2022-09-28T02:03:18.306Z,23.5
2022-09-28T02:04:19.976Z,23.5
2022-09-28T02:05:21.540Z,23.5
2022-09-28T02:06:23.144Z,23.5
2022-09-28T02:07:24.806Z,23.5
2022-09-28T02:08:26.380Z,23.5
2022-09-28T02:09:31.759Z,23.5
2022-09-28T02:10:35.499Z,23.5
2022-09-28T02:11:37.037Z,23.5
2022-09-28T02:12:38.875Z,23.5
2022-09-28T02:13:40.512Z,23.5
2022-09-28T02:14:42.189Z,23.5
2022-09-28T02:15:43.833Z,23.5
2022-09-28T02:16:45.429Z,23.4
2022-09-28T02:17:47.525Z,23.4
2022-09-28T02:18:49.100Z,23.4
2022-09-28T02:19:50.722Z,23.4
2022-09-28T02:20:52.254Z,23.4
2022-09-28T02:21:53.935Z,23.4
2022-09-28T02:22:55.706Z,23.4
2022-09-28T02:23:57.330Z,23.4
2022-09-28T02:24:59.025Z,23.4
2022-09-28T02:26:00.612Z,23.4
2022-09-28T02:27:02.191Z,23.4
2022-09-28T02:28:03.832Z,23.4
2022-09-28T02:29:05.651Z,23.4
2022-09-28T02:30:07.206Z,23.4
2022-09-28T02:31:08.920Z,23.4
2022-09-28T02:32:11.131Z,23.4
2022-09-28T02:33:12.673Z,23.4
2022-09-28T02:34:14.432Z,23.4
2022-09-28T02:35:16.010Z,23.4
2022-09-28T02:36:17.553Z,23.4
2022-09-28T02:37:19.106Z,23.4
2022-09-28T02:38:20.757Z,23.4
2022-09-28T02:39:22.316Z,23.4
2022-09-28T02:40:24.115Z,23.4
2022-09-28T02:41:26.043Z,23.4
2022-09-28T02:42:27.635Z,23.4
2022-09-28T02:43:29.391Z,23.4
2022-09-28T02:44:31.101Z,23.4
2022-09-28T02:45:32.731Z,23.4
2022-09-28T02:46:34.579Z,23.4
2022-09-28T02:47:36.160Z,23.4
2022-09-28T02:48:43.438Z,23.4
2022-09-28T02:50:31.671Z,23.4
2022-09-28T02:51:33.379Z,23.4
2022-09-28T02:52:35.086Z,23.4
2022-09-28T02:53:36.722Z,23.4
2022-09-28T02:54:38.259Z,23.4
2022-09-28T02:55:39.829Z,23.4
2022-09-28T02:56:41.451Z,23.3
2022-09-28T02:57:43.129Z,23.3
2022-09-28T02:58:44.893Z,23.3
2022-09-28T02:59:46.585Z,23.3
2022-09-28T03:00:48.227Z,23.3
2022-09-28T03:01:50.283Z,23.3
2022-09-28T03:02:52.273Z,23.3
2022-09-28T03:03:53.892Z,23.3
2022-09-28T03:04:55.427Z,23.4
2022-09-28T03:05:56.955Z,23.4
2022-09-28T03:06:58.506Z,23.3
2022-09-28T03:08:00.453Z,23.3
2022-09-28T03:09:02.065Z,23.3
2022-09-28T03:10:03.654Z,23.3
2022-09-28T03:11:05.385Z,23.3
2022-09-28T03:12:07.030Z,23.3
2022-09-28T03:13:08.637Z,23.3
2022-09-28T03:14:10.537Z,23.3
2022-09-28T03:15:12.272Z,23.3
2022-09-28T03:16:13.952Z,23.3
2022-09-28T03:17:16.124Z,23.3
2022-09-28T03:18:17.839Z,23.3
2022-09-28T03:19:19.375Z,23.3
2022-09-28T03:20:21.086Z,23.3
2022-09-28T03:21:22.753Z,23.3
2022-09-28T03:22:24.399Z,23.3
2022-09-28T03:23:26.011Z,23.3
2022-09-28T03:24:27.908Z,23.3
2022-09-28T03:25:29.527Z,23.2
2022-09-28T03:26:31.152Z,23.2
2022-09-28T03:27:32.809Z,23.2
2022-09-28T03:28:34.352Z,23.2
2022-09-28T03:29:36.154Z,23.2
2022-09-28T03:30:37.864Z,23.2
2022-09-28T03:31:39.450Z,23.2
2022-09-28T03:32:41.546Z,23.2
2022-09-28T03:33:43.305Z,23.2
2022-09-28T03:34:45.012Z,23.2
2022-09-28T03:35:46.611Z,23.2
2022-09-28T03:36:48.147Z,23.2
2022-09-28T03:37:49.713Z,23.2
2022-09-28T03:38:51.255Z,23.2
2022-09-28T03:39:52.855Z,23.2
2022-09-28T03:40:54.552Z,23.2
2022-09-28T03:41:56.786Z,23.2
2022-09-28T03:42:58.454Z,23.2
2022-09-28T03:44:00.898Z,23.2
2022-09-28T03:45:02.678Z,23.2
2022-09-28T03:46:04.426Z,23.2
2022-09-28T03:47:06.626Z,23.2
2022-09-28T03:48:08.175Z,23.2
2022-09-28T03:49:09.850Z,23.2
2022-09-28T03:50:12.074Z,23.2
2022-09-28T03:51:13.658Z,23.2
2022-09-28T03:52:15.362Z,23.2
2022-09-28T03:53:17.012Z,23.2
2022-09-28T03:54:18.560Z,23.2
2022-09-28T03:55:20.146Z,23.2
2022-09-28T03:56:21.740Z,23.2
2022-09-28T03:57:23.379Z,23.2
2022-09-28T03:58:25.047Z,23.2
2022-09-28T03:59:26.801Z,23.2
2022-09-28T04:00:28.426Z,23.2
2022-09-28T04:01:30.246Z,23.2
2022-09-28T04:02:32.263Z,23.2
2022-09-28T04:03:34.282Z,23.2
2022-09-28T04:04:35.827Z,23.2
2022-09-28T04:05:37.371Z,23.2
2022-09-28T04:06:39.032Z,23.2
2022-09-28T04:07:40.616Z,23.2
2022-09-28T04:08:42.235Z,23.1
2022-09-28T04:09:43.868Z,23.2
2022-09-28T04:10:45.419Z,23.2
2022-09-28T04:12:02.601Z,23.1
2022-09-28T04:13:06.213Z,23.2
2022-09-28T04:14:07.794Z,23.2
2022-09-28T04:15:09.490Z,23.2
2022-09-28T04:16:11.374Z,23.1
2022-09-28T04:17:13.485Z,23.1
2022-09-28T04:18:15.274Z,23.2
2022-09-28T04:19:16.919Z,23.3
2022-09-28T04:20:19.048Z,23.3
2022-09-28T04:21:20.581Z,23.2
2022-09-28T04:22:22.130Z,23.3
2022-09-28T04:23:23.923Z,23.3
2022-09-28T04:24:25.575Z,23.3
2022-09-28T04:25:27.196Z,23.3
2022-09-28T04:26:28.817Z,23.2
2022-09-28T04:27:30.477Z,23
2022-09-28T04:28:32.084Z,22.9
2022-09-28T04:29:33.766Z,22.9
2022-09-28T04:30:35.358Z,23
2022-09-28T04:31:37.290Z,23
2022-09-28T04:32:39.375Z,23
2022-09-28T04:33:40.913Z,23
2022-09-28T04:34:44.229Z,23.1
2022-09-28T04:35:46.114Z,22.9
2022-09-28T04:36:47.652Z,22.9
2022-09-28T04:37:49.223Z,22.9
2022-09-28T04:38:53.369Z,23
2022-09-28T04:39:55.339Z,23.1
2022-09-28T04:40:57.035Z,23.1
2022-09-28T04:41:59.012Z,23
2022-09-28T04:43:00.584Z,23
2022-09-28T04:44:02.224Z,23
2022-09-28T04:45:03.917Z,23
2022-09-28T04:46:05.681Z,23.2
2022-09-28T04:47:07.749Z,23.2
2022-09-28T04:48:09.473Z,23.2
2022-09-28T04:49:11.188Z,23.2
2022-09-28T04:50:12.998Z,23.1
2022-09-28T04:51:14.670Z,23.1
2022-09-28T04:52:18.432Z,23.1
2022-09-28T04:53:20.383Z,23.2
2022-09-28T04:54:21.892Z,23.2
2022-09-28T04:55:23.791Z,23.2
2022-09-28T04:56:25.375Z,23.3
2022-09-28T04:57:27.026Z,23.3
2022-09-28T04:58:28.814Z,23.2
2022-09-28T04:59:30.545Z,23.3
2022-09-28T05:00:32.233Z,23.4
2022-09-28T05:01:34.049Z,23.4
2022-09-28T05:02:36.367Z,23.4
2022-09-28T05:03:38.572Z,23.5
2022-09-28T05:04:40.128Z,23.6
2022-09-28T05:05:41.684Z,23.6
2022-09-28T05:06:43.278Z,23.7
2022-09-28T05:07:44.865Z,23.8
2022-09-28T05:08:46.550Z,23.8
2022-09-28T05:09:48.254Z,23.8
2022-09-28T05:10:49.827Z,23.9
2022-09-28T05:11:51.420Z,23.9
2022-09-28T05:12:53.098Z,23.9
2022-09-28T05:13:54.674Z,23.9
2022-09-28T05:14:56.343Z,23.9
2022-09-28T05:16:00.706Z,24
2022-09-28T05:17:07.560Z,24
2022-09-28T05:18:09.297Z,24
2022-09-28T05:19:10.952Z,24
2022-09-28T05:20:12.489Z,24
2022-09-28T05:21:14.028Z,24.1
2022-09-28T05:22:15.583Z,24.1
2022-09-28T05:23:17.268Z,24.1
2022-09-28T05:24:18.958Z,24.1
2022-09-28T05:25:20.508Z,24.2
2022-09-28T05:26:22.051Z,24.3
2022-09-28T05:27:23.845Z,24.4
2022-09-28T05:28:25.587Z,24.4
2022-09-28T05:29:30.141Z,24.4
2022-09-28T05:30:34.358Z,24.5
2022-09-28T05:31:36.092Z,24.5
2022-09-28T05:32:37.987Z,24.6
2022-09-28T05:33:39.713Z,24.6
2022-09-28T05:34:41.368Z,24.6
2022-09-28T05:35:42.935Z,24.7
2022-09-28T05:36:44.579Z,24.7
2022-09-28T05:37:46.245Z,24.7
2022-09-28T05:38:47.917Z,24.8
2022-09-28T05:39:49.522Z,24.8
2022-09-28T05:40:51.062Z,24.7
2022-09-28T05:41:52.996Z,24.7
2022-09-28T05:42:54.563Z,24.7
2022-09-28T05:43:56.399Z,24.7
2022-09-28T05:44:57.959Z,24.8
2022-09-28T05:45:59.629Z,24.8
2022-09-28T05:47:01.812Z,24.8
2022-09-28T05:48:03.416Z,24.8
2022-09-28T05:49:05.098Z,24.9
2022-09-28T05:50:06.754Z,24.9
2022-09-28T05:51:08.407Z,24.9
2022-09-28T05:52:10.181Z,24.9
2022-09-28T05:53:11.763Z,24.9
2022-09-28T05:54:13.443Z,24.9
2022-09-28T05:55:15.482Z,24.8
2022-09-28T05:56:17.242Z,24.8
2022-09-28T05:57:19.090Z,24.8
2022-09-28T05:58:20.849Z,24.9
2022-09-28T05:59:22.426Z,24.9
2022-09-28T06:00:24.208Z,24.9
2022-09-28T06:01:25.971Z,24.9
2022-09-28T06:02:28.318Z,24.9
2022-09-28T06:03:30.282Z,24.9
2022-09-28T06:04:32.028Z,24.9
2022-09-28T06:05:33.758Z,24.9
2022-09-28T06:06:35.379Z,24.9
2022-09-28T06:07:36.940Z,24.9
2022-09-28T06:08:38.566Z,25
2022-09-28T06:09:40.155Z,25
2022-09-28T06:10:41.818Z,25
2022-09-28T06:11:43.477Z,25
2022-09-28T06:12:45.079Z,25
2022-09-28T06:13:46.634Z,25
2022-09-28T06:14:48.378Z,25
2022-09-28T06:15:49.972Z,25.1
2022-09-28T06:16:51.680Z,25.1
2022-09-28T06:17:53.694Z,25.1
2022-09-28T06:18:55.331Z,25.1
2022-09-28T06:19:57.019Z,25.1
2022-09-28T06:20:58.578Z,25.1
2022-09-28T06:22:00.171Z,25.1
2022-09-28T06:23:01.878Z,25.1
2022-09-28T06:24:03.439Z,25.2
2022-09-28T06:25:05.009Z,25.2
2022-09-28T06:26:06.703Z,25.2
2022-09-28T06:27:08.467Z,25.2
2022-09-28T06:28:10.033Z,25.2
2022-09-28T06:29:13.708Z,25.1
2022-09-28T06:30:21.369Z,25.2
2022-09-28T06:31:23.421Z,25.2
2022-09-28T06:32:25.594Z,25.2
2022-09-28T06:33:27.238Z,25.2
2022-09-28T06:34:28.824Z,25.2
2022-09-28T06:35:30.472Z,25.2
2022-09-28T06:36:32.447Z,25.3
2022-09-28T06:37:34.080Z,25.3
2022-09-28T06:38:35.773Z,25.3
2022-09-28T06:39:37.453Z,25.4
2022-09-28T06:40:39.163Z,25.4
2022-09-28T06:41:41.338Z,25.4
2022-09-28T06:42:43.032Z,25.4
2022-09-28T06:43:44.710Z,25.4
2022-09-28T06:44:46.271Z,25.4
2022-09-28T06:45:47.846Z,25.3
2022-09-28T06:46:49.865Z,25.3
2022-09-28T06:47:51.461Z,25.4
2022-09-28T06:48:52.998Z,25.4
2022-09-28T06:49:54.537Z,25.4
2022-09-28T06:50:56.203Z,25.4
2022-09-28T06:51:57.953Z,25.4
2022-09-28T06:52:59.557Z,25.4
2022-09-28T06:54:01.365Z,25.4
2022-09-28T06:55:03.009Z,25.4
2022-09-28T06:56:04.585Z,25.4
2022-09-28T06:57:06.194Z,25.4
2022-09-28T06:58:07.778Z,25.4
2022-09-28T06:59:09.417Z,25.4
2022-09-28T07:00:11.019Z,25.4
2022-09-28T07:01:12.669Z,25.4
2022-09-28T07:02:14.774Z,25.4
2022-09-28T07:03:16.968Z,25.4
2022-09-28T07:04:18.644Z,25.4
2022-09-28T07:05:20.799Z,25.4
2022-09-28T07:06:22.525Z,25.4
2022-09-28T07:07:24.271Z,25.4
2022-09-28T07:08:25.933Z,25.5
2022-09-28T07:09:32.569Z,25.5
2022-09-28T07:10:52.549Z,25.5
2022-09-28T07:11:54.327Z,25.5
2022-09-28T07:12:55.901Z,25.5
2022-09-28T07:13:57.606Z,25.5
2022-09-28T07:14:59.222Z,25.5
2022-09-28T07:16:00.767Z,25.5
2022-09-28T07:17:12.922Z,25.5
2022-09-28T07:18:17.091Z,25.5
2022-09-28T07:19:19.335Z,25.5
2022-09-28T07:20:20.968Z,25.6
2022-09-28T07:21:29.461Z,25.5
2022-09-28T07:22:41.648Z,25.5
2022-09-28T07:23:53.104Z,25.6
2022-09-28T07:24:56.043Z,25.6
2022-09-28T07:25:57.662Z,25.6
2022-09-28T07:26:59.426Z,25.7
2022-09-28T07:28:01.004Z,25.7
2022-09-28T07:29:02.649Z,25.7
2022-09-28T07:30:04.272Z,25.7
2022-09-28T07:31:05.944Z,25.7
2022-09-28T07:32:08.052Z,25.7
2022-09-28T07:33:09.845Z,25.7
2022-09-28T07:34:11.500Z,25.7
2022-09-28T07:35:13.378Z,25.7
2022-09-28T07:36:15.176Z,25.7
2022-09-28T07:37:16.805Z,25.7
2022-09-28T07:38:18.717Z,25.7
2022-09-28T07:39:20.516Z,25.7
2022-09-28T07:40:22.222Z,25.7
2022-09-28T07:41:24.193Z,25.8
2022-09-28T07:42:25.841Z,25.7
2022-09-28T07:43:27.519Z,25.8
2022-09-28T07:44:29.234Z,25.8
2022-09-28T07:45:31.067Z,25.8
2022-09-28T07:46:33.107Z,25.8
2022-09-28T07:47:35.325Z,25.8
2022-09-28T07:48:37.078Z,25.8
2022-09-28T07:49:38.741Z,25.8
2022-09-28T07:50:40.672Z,25.8
2022-09-28T07:51:42.479Z,25.8
2022-09-28T07:52:44.139Z,25.9
2022-09-28T07:53:46.101Z,25.9
2022-09-28T07:54:47.756Z,25.9
2022-09-28T07:55:49.536Z,25.9
2022-09-28T07:56:51.292Z,25.9
2022-09-28T07:57:53.060Z,25.9
2022-09-28T07:58:54.864Z,25.9
2022-09-28T07:59:56.463Z,25.9
2022-09-28T08:00:58.286Z,26
2022-09-28T08:02:00.267Z,26
2022-09-28T08:03:02.614Z,26
2022-09-28T08:04:04.485Z,26
2022-09-28T08:05:06.220Z,26
2022-09-28T08:06:07.826Z,26
2022-09-28T08:07:09.517Z,26.1
2022-09-28T08:08:11.440Z,26
2022-09-28T08:09:13.473Z,26
2022-09-28T08:10:16.120Z,26
2022-09-28T08:11:17.682Z,26
2022-09-28T08:12:19.390Z,26
2022-09-28T08:13:23.438Z,26
2022-09-28T08:14:29.066Z,26
2022-09-28T08:15:33.207Z,26.1
2022-09-28T08:16:34.897Z,26
2022-09-28T08:17:37.145Z,26
2022-09-28T08:18:38.719Z,26
2022-09-28T08:19:40.459Z,26
2022-09-28T08:20:42.079Z,26
2022-09-28T08:21:43.695Z,26
2022-09-28T08:22:45.348Z,26
2022-09-28T08:23:47.272Z,26
2022-09-28T08:24:49.451Z,26
2022-09-28T08:25:51.105Z,26
2022-09-28T08:26:52.658Z,26
2022-09-28T08:27:54.387Z,26
2022-09-28T08:28:56.180Z,26.1
2022-09-28T08:29:57.875Z,26.1
2022-09-28T08:30:59.592Z,26
2022-09-28T08:32:02.040Z,26
2022-09-28T08:33:03.894Z,26
2022-09-28T08:34:05.447Z,26
2022-09-28T08:35:07.163Z,26.1
2022-09-28T08:36:08.754Z,26.1
2022-09-28T08:37:10.329Z,26
2022-09-28T08:38:11.995Z,26
2022-09-28T08:39:13.649Z,26
2022-09-28T08:40:15.636Z,26
2022-09-28T08:41:17.641Z,26
2022-09-28T08:42:19.300Z,26
2022-09-28T08:43:20.888Z,26
2022-09-28T08:44:22.631Z,26
2022-09-28T08:45:24.495Z,26
2022-09-28T08:46:26.975Z,26
2022-09-28T08:47:29.245Z,26
2022-09-28T08:48:30.796Z,26
2022-09-28T08:49:32.766Z,26.1
2022-09-28T08:50:35.718Z,26.1
2022-09-28T08:51:37.383Z,26.1
2022-09-28T08:52:38.993Z,26.1
2022-09-28T08:53:43.260Z,26.1
2022-09-28T08:54:44.914Z,26.1
2022-09-28T08:55:46.813Z,26.1
2022-09-28T08:56:48.404Z,26
2022-09-28T08:57:50.065Z,26.1
2022-09-28T08:58:51.687Z,26.1
2022-09-28T08:59:53.494Z,26.1
2022-09-28T09:00:55.185Z,26.1
2022-09-28T09:01:58.057Z,26.2
2022-09-28T09:03:00.415Z,26.2
2022-09-28T09:04:02.224Z,26.1
2022-09-28T09:05:03.875Z,26.1
2022-09-28T09:06:05.544Z,26.2
2022-09-28T09:07:07.204Z,26.1
2022-09-28T09:08:08.908Z,26.2
2022-09-28T09:09:10.512Z,26.1
2022-09-28T09:10:12.166Z,26.2
2022-09-28T09:11:14.050Z,26.2
2022-09-28T09:12:16.109Z,26.1
2022-09-28T09:13:17.726Z,26.1
2022-09-28T09:14:19.487Z,26.2
2022-09-28T09:15:21.077Z,26.1
2022-09-28T09:16:22.673Z,26.2
2022-09-28T09:17:24.642Z,26.1
2022-09-28T09:18:26.366Z,26.1
2022-09-28T09:19:27.940Z,26.1
2022-09-28T09:20:29.496Z,26.2
2022-09-28T09:21:31.031Z,26.2
2022-09-28T09:22:32.578Z,26.1
2022-09-28T09:23:34.246Z,26.1
2022-09-28T09:24:35.853Z,26.2
2022-09-28T09:25:38.575Z,26.1
2022-09-28T09:26:40.474Z,26.2
2022-09-28T09:27:42.019Z,26.2
2022-09-28T09:28:43.674Z,26.2
2022-09-28T09:29:45.356Z,26.2
2022-09-28T09:30:47.021Z,26.1
2022-09-28T09:31:49.008Z,26.1
2022-09-28T09:32:50.650Z,26.2
2022-09-28T09:33:52.217Z,26.2
2022-09-28T09:34:53.755Z,26.2
2022-09-28T09:35:55.336Z,26.2
2022-09-28T09:36:56.870Z,26.2
2022-09-28T09:37:58.797Z,26.2
2022-09-28T09:39:00.477Z,26.1
2022-09-28T09:40:02.267Z,26.2
2022-09-28T09:41:03.970Z,26.2
2022-09-28T09:42:06.484Z,26.1
2022-09-28T09:43:08.221Z,26.1
2022-09-28T09:44:09.813Z,26.1
2022-09-28T09:45:11.822Z,26.2
2022-09-28T09:46:13.477Z,26.2
2022-09-28T09:47:15.600Z,26.3
2022-09-28T09:48:17.226Z,26.2
2022-09-28T09:50:20.152Z,26.3
2022-09-28T09:51:21.750Z,26.3
2022-09-28T09:52:23.516Z,26.3
2022-09-28T09:53:25.807Z,26.2
2022-09-28T09:54:30.567Z,26.2
2022-09-28T09:55:32.167Z,26.2
2022-09-28T09:56:33.830Z,26.2
2022-09-28T09:57:35.664Z,26.3
2022-09-28T09:58:37.213Z,26.3
2022-09-28T09:59:38.759Z,26.2
2022-09-28T10:00:40.367Z,26.2
2022-09-28T10:01:42.241Z,26.2
2022-09-28T10:02:44.241Z,26.3
2022-09-28T10:03:46.375Z,26.3
2022-09-28T10:04:48.089Z,26.3
2022-09-28T10:05:49.730Z,26.3
2022-09-28T10:06:51.408Z,26.3
2022-09-28T10:07:53.162Z,26.2
2022-09-28T10:08:54.862Z,26.2
2022-09-28T10:09:56.599Z,26.3
2022-09-28T10:11:01.397Z,26.3
2022-09-28T10:12:03.351Z,26.2
2022-09-28T10:13:05.463Z,26.2
2022-09-28T10:14:07.105Z,26.3
2022-09-28T10:15:08.773Z,26.3
2022-09-28T10:16:10.366Z,26.3
2022-09-28T10:17:12.034Z,26.3
2022-09-28T10:18:13.763Z,26.4
2022-09-28T10:19:15.386Z,26.4
2022-09-28T10:20:20.733Z,26.4
2022-09-28T10:21:22.393Z,26.4
2022-09-28T10:22:24.141Z,26.4
2022-09-28T10:23:25.817Z,26.4
2022-09-28T10:24:27.561Z,26.4
2022-09-28T10:25:29.270Z,26.4
2022-09-28T10:26:30.986Z,26.4
2022-09-28T10:27:32.642Z,26.3
2022-09-28T10:28:34.544Z,26.3
2022-09-28T10:29:36.226Z,26.3
2022-09-28T10:30:38.013Z,26.3
2022-09-28T10:31:40.005Z,26.4
2022-09-28T10:32:41.803Z,26.3
2022-09-28T10:33:43.422Z,26.3
2022-09-28T10:34:48.672Z,26.3
2022-09-28T10:35:53.008Z,26.3
2022-09-28T10:36:54.654Z,26.3
2022-09-28T10:37:56.433Z,26.3
2022-09-28T10:38:58.191Z,26.3
2022-09-28T10:39:59.887Z,26.3
2022-09-28T10:41:01.771Z,26.4
2022-09-28T10:42:03.995Z,26.4
2022-09-28T10:43:05.816Z,26.4
2022-09-28T10:44:07.721Z,26.3
2022-09-28T10:45:09.377Z,26.4
2022-09-28T10:46:11.049Z,26.3
2022-09-28T10:47:13.247Z,26.3
2022-09-28T10:48:14.961Z,26.4
2022-09-28T10:49:16.539Z,26.4
2022-09-28T10:50:18.225Z,26.4
2022-09-28T10:51:20.069Z,26.4
2022-09-28T10:52:21.803Z,26.4
2022-09-28T10:53:23.487Z,26.4
2022-09-28T10:54:25.104Z,26.4
2022-09-28T10:55:26.925Z,26.3
2022-09-28T10:56:28.736Z,26.3
2022-09-28T10:57:30.343Z,26.3
2022-09-28T10:58:31.996Z,26.4
2022-09-28T10:59:33.846Z,26.4
2022-09-28T11:00:35.470Z,26.4
2022-09-28T11:01:37.191Z,26.4
2022-09-28T11:02:39.407Z,26.4
2022-09-28T11:03:41.738Z,26.4
2022-09-28T11:04:43.382Z,26.4
2022-09-28T11:05:45.033Z,26.5
2022-09-28T11:06:46.772Z,26.4
2022-09-28T11:07:48.741Z,26.5
2022-09-28T11:08:50.626Z,26.5
2022-09-28T11:09:52.830Z,26.4
2022-09-28T11:10:54.568Z,26.5
2022-09-28T11:11:56.287Z,26.4
2022-09-28T11:12:57.935Z,26.4
2022-09-28T11:13:59.777Z,26.4
2022-09-28T11:15:01.627Z,26.4
2022-09-28T11:16:03.249Z,26.4
2022-09-28T11:17:05.010Z,26.4
2022-09-28T11:18:07.031Z,26.5
2022-09-28T11:19:08.662Z,26.5
2022-09-28T11:20:10.323Z,26.5
2022-09-28T11:21:13.171Z,26.5
2022-09-28T11:22:15.024Z,26.5
2022-09-28T11:23:16.790Z,26.5
2022-09-28T11:24:19.403Z,26.5
2022-09-28T11:25:22.588Z,26.5
2022-09-28T11:26:24.388Z,26.5
2022-09-28T11:27:26.223Z,26.5
2022-09-28T11:28:28.047Z,26.5
2022-09-28T11:29:29.701Z,26.5
2022-09-28T11:30:31.677Z,26.5
2022-09-28T11:31:33.859Z,26.5
2022-09-28T11:32:35.413Z,26.5
2022-09-28T11:33:37.109Z,26.5
2022-09-28T11:34:58.465Z,26.5
2022-09-28T11:36:02.259Z,26.5
2022-09-28T11:37:03.783Z,26.5
2022-09-28T11:38:05.353Z,26.5
2022-09-28T11:39:07.177Z,26.5
2022-09-28T11:40:08.719Z,26.5
2022-09-28T11:41:10.262Z,26.5
2022-09-28T11:42:15.559Z,26.5
2022-09-28T11:43:18.390Z,26.6
2022-09-28T11:44:20.080Z,26.6
2022-09-28T11:45:21.861Z,26.5
2022-09-28T11:46:23.677Z,26.6
2022-09-28T11:47:25.760Z,26.6
2022-09-28T11:48:27.397Z,26.6
2022-09-28T11:49:29.004Z,26.6
2022-09-28T11:50:30.566Z,26.6
2022-09-28T11:51:32.504Z,26.5
2022-09-28T11:52:34.131Z,26.5
2022-09-28T11:53:35.790Z,26.5
2022-09-28T11:54:37.588Z,26.5
2022-09-28T11:55:39.231Z,26.6
2022-09-28T11:56:41.006Z,26.5
2022-09-28T11:57:42.703Z,26.5
2022-09-28T11:58:44.615Z,26.5
2022-09-28T11:59:46.236Z,26.6
2022-09-28T12:00:47.786Z,26.5
2022-09-28T12:01:49.695Z,26.5
2022-09-28T12:02:51.431Z,26.5
2022-09-28T12:03:53.762Z,26.5
2022-09-28T12:04:55.354Z,26.5
2022-09-28T12:05:56.895Z,26.5
2022-09-28T12:06:58.568Z,26.6
2022-09-28T12:08:00.303Z,26.5
2022-09-28T12:09:02.028Z,26.5
2022-09-28T12:10:03.716Z,26.5
2022-09-28T12:11:05.652Z,26.5
2022-09-28T12:12:07.265Z,26.5
2022-09-28T12:13:08.955Z,26.5
2022-09-28T12:14:10.863Z,26.5
2022-09-28T12:15:12.628Z,26.5
2022-09-28T12:18:21.775Z,26.6
2022-09-28T12:19:23.343Z,26.6
2022-09-28T12:20:25.092Z,26.6
2022-09-28T12:21:26.813Z,26.6
2022-09-28T12:22:28.372Z,26.5
2022-09-28T12:23:30.029Z,26.5
2022-09-28T12:24:31.594Z,26.5
2022-09-28T12:25:33.199Z,26.5
2022-09-28T12:26:35.935Z,26.5
2022-09-28T12:27:39.786Z,26.5
2022-09-28T12:28:41.414Z,26.5
2022-09-28T12:29:43.021Z,26.5
2022-09-28T12:30:44.855Z,26.5
2022-09-28T12:31:47.078Z,26.5
2022-09-28T12:32:48.767Z,26.5
2022-09-28T12:33:50.671Z,26.5
2022-09-28T12:34:52.416Z,26.5
2022-09-28T12:35:54.066Z,26.4
2022-09-28T12:36:55.717Z,26.4
2022-09-28T12:37:57.330Z,26.4
2022-09-28T12:41:00.075Z,26.4
2022-09-28T12:42:02.179Z,26.4
2022-09-28T12:43:03.788Z,26.4
2022-09-28T12:44:05.464Z,26.4
2022-09-28T12:45:07.140Z,26.3
2022-09-28T12:46:12.752Z,26.3
2022-09-28T12:47:15.508Z,26.3
2022-09-28T12:48:17.211Z,26.2
2022-09-28T12:51:58.424Z,26.2
2022-09-28T12:53:02.239Z,26.2
2022-09-28T12:54:05.018Z,26.2
2022-09-28T12:55:06.630Z,26.2
2022-09-28T12:56:08.749Z,26.2
2022-09-28T12:57:10.826Z,26.2
2022-09-28T12:58:12.485Z,26.2
2022-09-28T12:59:14.097Z,26.2
2022-09-28T13:00:16.041Z,26.2
2022-09-28T13:01:17.749Z,26.2
2022-09-28T13:02:19.759Z,26.2
2022-09-28T13:03:21.976Z,26.2
2022-09-28T13:04:23.729Z,26.2
2022-09-28T13:05:25.352Z,26.1
2022-09-28T13:06:27.130Z,26.1
2022-09-28T13:07:28.720Z,26.1
2022-09-28T13:08:30.412Z,26.1
2022-09-28T13:09:32.095Z,26
2022-09-28T13:10:33.655Z,26
2022-09-28T13:11:35.243Z,26
2022-09-28T13:12:36.903Z,26.1
2022-09-28T13:13:38.554Z,26.1
2022-09-28T13:14:40.229Z,26.1
2022-09-28T13:15:41.926Z,26.1
2022-09-28T13:16:43.942Z,26.1
2022-09-28T13:17:45.830Z,26.1
2022-09-28T13:18:47.462Z,26.1
2022-09-28T13:19:49.229Z,26.1
2022-09-28T13:20:50.808Z,26
2022-09-28T13:21:52.458Z,26
2022-09-28T13:22:54.084Z,26
2022-09-28T13:24:08.654Z,26
2022-09-28T13:25:35.105Z,26
2022-09-28T13:26:36.629Z,26
2022-09-28T13:27:38.425Z,26
2022-09-28T13:28:39.982Z,26
2022-09-28T13:29:41.607Z,26
2022-09-28T13:30:43.455Z,26
2022-09-28T13:31:45.587Z,26
2022-09-28T13:32:47.246Z,26
2022-09-28T13:33:48.909Z,26
2022-09-28T13:34:50.530Z,26
2022-09-28T13:35:52.298Z,26
2022-09-28T13:36:53.870Z,26
2022-09-28T13:37:55.664Z,25.9
2022-09-28T13:38:57.336Z,25.9
2022-09-28T13:39:59.045Z,25.9
2022-09-28T13:41:01.395Z,26
2022-09-28T13:42:03.407Z,26
2022-09-28T13:43:05.110Z,26
2022-09-28T13:44:06.804Z,26
2022-09-28T13:45:08.447Z,26
2022-09-28T13:46:10.075Z,26
2022-09-28T13:47:12.344Z,26
2022-09-28T13:48:13.891Z,26
2022-09-28T13:49:15.583Z,26
2022-09-28T13:50:17.313Z,26
2022-09-28T13:51:19.132Z,26
2022-09-28T13:52:20.692Z,26
2022-09-28T13:53:22.275Z,26
2022-09-28T13:54:23.812Z,26
2022-09-28T13:55:25.506Z,26
2022-09-28T13:56:27.179Z,26
2022-09-28T13:57:28.752Z,26
2022-09-28T13:58:30.435Z,26
2022-09-28T13:59:31.997Z,26
2022-09-28T14:00:33.670Z,26
2022-09-28T14:01:35.342Z,26